createdAt,value
2023-05-17T00:01:15.243Z,0.28
2023-05-17T00:03:10.978Z,0.28
2023-05-17T00:05:11.811Z,0.28
2023-05-17T00:07:11.302Z,0
2023-05-17T00:09:11.228Z,0
2023-05-17T00:11:10.918Z,0
2023-05-17T00:13:10.468Z,0
2023-05-17T00:15:10.982Z,0
2023-05-17T00:17:10.686Z,0
2023-05-17T00:19:11.923Z,0
2023-05-17T00:21:11.222Z,0
2023-05-17T00:23:10.848Z,0
2023-05-17T00:25:10.539Z,0.28
2023-05-17T00:27:11.022Z,0.28
2023-05-17T00:29:10.445Z,0.28
2023-05-17T00:31:11.216Z,0
2023-05-17T00:33:11.006Z,0
2023-05-17T00:35:10.659Z,0
2023-05-17T00:37:11.020Z,0
2023-05-17T00:39:10.480Z,0
2023-05-17T00:41:11.304Z,0
2023-05-17T00:43:10.820Z,0
2023-05-17T00:45:11.192Z,0
2023-05-17T00:47:10.873Z,0
2023-05-17T00:49:11.513Z,0.26
2023-05-17T00:51:11.166Z,0.26
2023-05-17T00:53:10.849Z,0.26
2023-05-17T00:55:11.177Z,0
2023-05-17T00:57:10.798Z,0
2023-05-17T00:59:10.522Z,0
2023-05-17T01:01:13.765Z,0
2023-05-17T01:03:11.231Z,0
2023-05-17T01:05:11.030Z,0
2023-05-17T01:07:10.992Z,0
2023-05-17T01:09:10.546Z,0
2023-05-17T01:11:11.346Z,0
2023-05-17T01:13:10.920Z,0.28
2023-05-17T01:15:11.265Z,0.28
2023-05-17T01:17:10.986Z,0.28
2023-05-17T01:19:11.846Z,0
2023-05-17T01:21:12.568Z,0
2023-05-17T01:23:10.985Z,0
2023-05-17T01:25:10.566Z,0
2023-05-17T01:27:10.990Z,0
2023-05-17T01:29:10.622Z,0
2023-05-17T01:31:11.352Z,0.25
2023-05-17T01:33:11.415Z,0.25
2023-05-17T01:35:10.465Z,0.25
2023-05-17T01:37:11.001Z,0.27
2023-05-17T01:39:10.920Z,0.27
2023-05-17T01:41:11.521Z,0.27
2023-05-17T01:43:11.094Z,0
2023-05-17T01:45:10.602Z,0
2023-05-17T01:47:11.116Z,0
2023-05-17T01:49:11.337Z,0
2023-05-17T01:51:10.724Z,0
2023-05-17T01:53:10.967Z,0
2023-05-17T01:55:10.926Z,0
2023-05-17T01:57:11.289Z,0
2023-05-17T01:59:10.962Z,0
2023-05-17T02:01:14.039Z,0
2023-05-17T02:03:11.169Z,0
2023-05-17T02:05:11.329Z,0
2023-05-17T02:07:11.238Z,0
2023-05-17T02:09:10.870Z,0
2023-05-17T02:11:11.562Z,0
2023-05-17T02:13:10.838Z,0
2023-05-17T02:15:10.638Z,0
2023-05-17T02:17:11.198Z,0
2023-05-17T02:19:11.722Z,0.24
2023-05-17T02:21:11.362Z,0.24
2023-05-17T02:23:10.856Z,0.24
2023-05-17T02:25:11.117Z,0.25
2023-05-17T02:27:10.722Z,0.25
2023-05-17T02:29:11.223Z,0.25
2023-05-17T02:31:14.620Z,0
2023-05-17T02:33:10.826Z,0
2023-05-17T02:35:10.979Z,0
2023-05-17T02:37:10.682Z,0
2023-05-17T02:39:11.386Z,0
2023-05-17T02:41:10.980Z,0
2023-05-17T02:43:10.529Z,0
2023-05-17T02:45:11.153Z,0
2023-05-17T02:47:13.143Z,0
2023-05-17T02:49:11.355Z,0
2023-05-17T02:51:10.830Z,0
2023-05-17T02:53:10.377Z,0
2023-05-17T02:55:10.907Z,0
2023-05-17T02:57:11.295Z,0
2023-05-17T02:59:10.911Z,0
2023-05-17T03:01:13.958Z,0
2023-05-17T03:03:11.744Z,0
2023-05-17T03:05:11.536Z,0
2023-05-17T03:07:11.226Z,0
2023-05-17T03:09:10.895Z,0
2023-05-17T03:11:10.742Z,0
2023-05-17T03:13:13.343Z,0.25
2023-05-17T03:15:10.785Z,0.25
2023-05-17T03:17:10.371Z,0.25
2023-05-17T03:19:12.887Z,0.25
2023-05-17T03:21:10.770Z,0.25
2023-05-17T03:23:10.443Z,0.25
2023-05-17T03:25:11.185Z,0
2023-05-17T03:27:10.688Z,0
2023-05-17T03:29:10.290Z,0
2023-05-17T03:31:11.703Z,0
2023-05-17T03:33:11.485Z,0
2023-05-17T03:35:10.816Z,0
2023-05-17T03:37:11.085Z,0
2023-05-17T03:39:10.906Z,0
2023-05-17T03:41:11.645Z,0
2023-05-17T03:43:11.315Z,0
2023-05-17T03:45:10.862Z,0
2023-05-17T03:47:11.163Z,0
2023-05-17T03:49:11.798Z,0
2023-05-17T03:51:10.852Z,0
2023-05-17T03:53:11.349Z,0
2023-05-17T03:55:11.500Z,0
2023-05-17T03:57:10.441Z,0
2023-05-17T03:59:11.059Z,0
2023-05-17T04:01:16.217Z,0
2023-05-17T04:03:11.424Z,0
2023-05-17T04:05:11.566Z,0
2023-05-17T04:07:10.621Z,0
2023-05-17T04:09:11.395Z,0
2023-05-17T04:11:11.110Z,0
2023-05-17T04:13:10.631Z,0
2023-05-17T04:15:11.128Z,0
2023-05-17T04:17:10.806Z,0
2023-05-17T04:19:12.575Z,0
2023-05-17T04:21:11.283Z,0
2023-05-17T04:23:10.803Z,0
2023-05-17T04:25:11.088Z,0.28
2023-05-17T04:27:14.852Z,0.28
2023-05-17T04:29:10.363Z,0.28
2023-05-17T04:31:11.542Z,0
2023-05-17T04:33:13.334Z,0
2023-05-17T04:35:11.202Z,0
2023-05-17T04:37:10.974Z,0
2023-05-17T04:39:11.329Z,0
2023-05-17T04:41:11.323Z,0
2023-05-17T04:43:10.732Z,0
2023-05-17T04:45:12.053Z,0
2023-05-17T04:47:10.589Z,0
2023-05-17T04:49:12.385Z,0
2023-05-17T04:51:10.695Z,0
2023-05-17T04:53:14.905Z,0
2023-05-17T04:55:10.830Z,0
2023-05-17T04:57:11.425Z,0
2023-05-17T04:59:10.992Z,0
2023-05-17T05:01:14.381Z,0
2023-05-17T05:03:11.794Z,0
2023-05-17T05:05:11.705Z,0
2023-05-17T05:07:10.609Z,0
2023-05-17T05:09:11.307Z,0
2023-05-17T05:11:11.101Z,0
2023-05-17T05:13:11.506Z,0
2023-05-17T05:15:12.845Z,0
2023-05-17T05:17:11.791Z,0
2023-05-17T05:19:13.249Z,0.29
2023-05-17T05:21:11.979Z,0.29
2023-05-17T05:23:11.549Z,0.29
2023-05-17T05:25:11.051Z,0
2023-05-17T05:27:11.249Z,0
2023-05-17T05:29:10.934Z,0
2023-05-17T05:31:10.764Z,0.29
2023-05-17T05:33:11.497Z,0.29
2023-05-17T05:35:11.074Z,0.29
2023-05-17T05:37:10.591Z,0
2023-05-17T05:39:10.812Z,0
2023-05-17T05:41:10.760Z,0
2023-05-17T05:43:11.197Z,0
2023-05-17T05:45:13.281Z,0
2023-05-17T05:47:11.047Z,0
2023-05-17T05:49:11.711Z,0
2023-05-17T05:51:10.505Z,0
2023-05-17T05:53:29.387Z,0
2023-05-17T05:55:10.956Z,0
2023-05-17T05:57:10.367Z,0
2023-05-17T05:59:11.199Z,0
2023-05-17T06:01:14.362Z,0
2023-05-17T06:03:10.809Z,0
2023-05-17T06:05:27.264Z,0
2023-05-17T06:07:12.144Z,0
2023-05-17T06:09:11.409Z,0
2023-05-17T06:11:10.931Z,0
2023-05-17T06:13:10.451Z,0.29
2023-05-17T06:15:10.820Z,0.29
2023-05-17T06:17:11.008Z,0.29
2023-05-17T06:19:14.703Z,0
2023-05-17T06:21:11.299Z,0
2023-05-17T06:23:10.939Z,0
2023-05-17T06:25:15.269Z,0
2023-05-17T06:27:10.780Z,0
2023-05-17T06:29:11.300Z,0
2023-05-17T06:31:14.316Z,0
2023-05-17T06:33:10.832Z,0
2023-05-17T06:35:11.207Z,0
2023-05-17T06:37:13.119Z,0
2023-05-17T06:39:12.215Z,0
2023-05-17T06:41:23.997Z,0
2023-05-17T06:43:10.497Z,0.28
2023-05-17T06:45:12.126Z,0.28
2023-05-17T06:47:10.655Z,0.28
2023-05-17T06:49:14.592Z,0.29
2023-05-17T06:51:11.391Z,0.29
2023-05-17T06:53:10.679Z,0.29
2023-05-17T06:55:11.262Z,0.3
2023-05-17T06:57:10.835Z,0.3
2023-05-17T06:59:11.392Z,0.3
2023-05-17T07:01:15.043Z,0
2023-05-17T07:03:10.942Z,0
2023-05-17T07:05:13.046Z,0
2023-05-17T07:07:10.618Z,0
2023-05-17T07:09:11.218Z,0
2023-05-17T07:11:11.164Z,0
2023-05-17T07:13:11.601Z,0
2023-05-17T07:15:11.277Z,0
2023-05-17T07:17:11.166Z,0
2023-05-17T07:19:12.659Z,0
2023-05-17T07:21:11.678Z,0
2023-05-17T07:23:11.093Z,0
2023-05-17T07:25:11.297Z,0
2023-05-17T07:27:14.553Z,0
2023-05-17T07:29:10.941Z,0
2023-05-17T07:31:11.414Z,0
2023-05-17T07:33:11.386Z,0
2023-05-17T07:35:12.265Z,0
2023-05-17T07:37:11.513Z,0
2023-05-17T07:39:10.646Z,0
2023-05-17T07:41:12.714Z,0
2023-05-17T07:43:14.222Z,0
2023-05-17T07:45:11.069Z,0
2023-05-17T07:47:10.928Z,0
2023-05-17T07:49:12.434Z,0.29
2023-05-17T07:51:11.231Z,0.29
2023-05-17T07:53:10.497Z,0.29
2023-05-17T07:55:12.735Z,0
2023-05-17T07:57:10.522Z,0
2023-05-17T07:59:11.010Z,0
2023-05-17T08:01:14.466Z,0
2023-05-17T08:03:11.432Z,0
2023-05-17T08:05:11.612Z,0
2023-05-17T08:07:10.859Z,0
2023-05-17T08:09:10.917Z,0
2023-05-17T08:11:10.855Z,0
2023-05-17T08:13:11.412Z,0
2023-05-17T08:15:10.874Z,0
2023-05-17T08:19:14.929Z,0
2023-05-17T08:21:11.418Z,0
2023-05-17T08:23:11.113Z,0
2023-05-17T08:25:13.365Z,0.29
2023-05-17T08:27:10.981Z,0.29
2023-05-17T08:29:10.634Z,0.29
2023-05-17T08:31:26.134Z,0.28
2023-05-17T08:33:11.422Z,0.28
2023-05-17T08:35:10.695Z,0.28
2023-05-17T08:37:11.292Z,0
2023-05-17T08:39:10.551Z,0
2023-05-17T08:41:11.935Z,0
2023-05-17T08:43:10.913Z,0
2023-05-17T08:45:10.358Z,0
2023-05-17T08:47:11.217Z,0
2023-05-17T08:49:11.796Z,0
2023-05-17T08:51:11.183Z,0
2023-05-17T08:53:10.766Z,0
2023-05-17T08:55:11.025Z,0
2023-05-17T08:57:10.463Z,0
2023-05-17T08:59:29.703Z,0
2023-05-17T09:01:15.026Z,0
2023-05-17T09:03:11.200Z,0
2023-05-17T09:05:11.815Z,0
2023-05-17T09:07:10.864Z,0
2023-05-17T09:09:11.338Z,0
2023-05-17T09:11:11.119Z,0
2023-05-17T09:13:11.787Z,0
2023-05-17T09:15:11.107Z,0
2023-05-17T09:17:10.907Z,0
2023-05-17T09:19:11.815Z,0.27
2023-05-17T09:21:11.591Z,0.27
2023-05-17T09:23:10.743Z,0.27
2023-05-17T09:25:17.512Z,0
2023-05-17T09:27:10.673Z,0
2023-05-17T09:29:11.273Z,0
2023-05-17T09:31:11.273Z,0.32
2023-05-17T09:33:10.925Z,0.32
2023-05-17T09:35:11.136Z,0.32
2023-05-17T09:37:11.292Z,0
2023-05-17T09:39:11.526Z,0
2023-05-17T09:41:10.602Z,0
2023-05-17T09:43:11.183Z,0
2023-05-17T09:45:11.591Z,0
2023-05-17T09:47:11.493Z,0
2023-05-17T09:49:11.960Z,0
2023-05-17T09:51:12.332Z,0
2023-05-17T09:53:10.811Z,0
2023-05-17T09:55:10.634Z,0
2023-05-17T09:57:10.973Z,0
2023-05-17T09:59:10.508Z,0
2023-05-17T10:01:13.828Z,0
2023-05-17T10:03:11.032Z,0
2023-05-17T10:05:12.522Z,0
2023-05-17T10:07:37.625Z,0
2023-05-17T10:09:10.556Z,0
2023-05-17T10:11:11.191Z,0
2023-05-17T10:13:11.718Z,0
2023-05-17T10:15:11.649Z,0
2023-05-17T10:17:10.796Z,0
2023-05-17T10:19:12.123Z,0.35
2023-05-17T10:21:11.616Z,0.35
2023-05-17T10:23:33.097Z,0.35
2023-05-17T10:25:10.768Z,0
2023-05-17T10:27:11.055Z,0
2023-05-17T10:29:10.683Z,0
2023-05-17T10:31:11.245Z,0.35
2023-05-17T10:33:11.128Z,0.35
2023-05-17T10:35:29.643Z,0.35
2023-05-17T10:37:10.868Z,0
2023-05-17T10:39:25.016Z,0
2023-05-17T10:41:13.185Z,0
2023-05-17T10:45:10.635Z,0
2023-05-17T10:47:11.168Z,0
2023-05-17T10:49:11.070Z,0.34
2023-05-17T10:51:24.368Z,0.34
2023-05-17T10:53:10.987Z,0.34
2023-05-17T10:55:12.041Z,0.35
2023-05-17T10:57:11.133Z,0.35
2023-05-17T10:59:10.505Z,0.35
2023-05-17T11:01:17.003Z,0
2023-05-17T11:03:11.425Z,0
2023-05-17T11:05:11.357Z,0
2023-05-17T11:07:22.145Z,0
2023-05-17T11:09:11.187Z,0
2023-05-17T11:11:10.995Z,0
2023-05-17T11:13:14.745Z,0.36
2023-05-17T11:15:11.079Z,0.36
2023-05-17T11:17:13.633Z,0.36
2023-05-17T11:19:19.629Z,0
2023-05-17T11:21:15.756Z,0
2023-05-17T11:23:11.036Z,0
2023-05-17T11:25:10.622Z,0
2023-05-17T11:27:24.771Z,0
2023-05-17T11:29:10.346Z,0
2023-05-17T11:31:11.066Z,0.37
2023-05-17T11:33:20.526Z,0.37
2023-05-17T11:35:10.952Z,0.37
2023-05-17T11:37:11.170Z,0
2023-05-17T11:39:19.983Z,0
2023-05-17T11:41:16.057Z,0
2023-05-17T11:43:11.037Z,0.01
2023-05-17T11:45:10.444Z,0.01
2023-05-17T11:47:11.004Z,0.01
2023-05-17T11:49:17.758Z,0.89
2023-05-17T11:51:14.141Z,0.89
2023-05-17T11:53:13.210Z,0.89
2023-05-17T11:55:10.661Z,0.97
2023-05-17T11:57:28.378Z,0.97
2023-05-17T11:59:10.831Z,0.97
2023-05-17T12:01:17.900Z,0.94
2023-05-17T12:03:10.893Z,0.94
2023-05-17T12:05:11.897Z,0.94
2023-05-17T12:07:11.067Z,0.01
2023-05-17T12:09:11.278Z,0.01
2023-05-17T12:11:11.132Z,0.01
2023-05-17T12:13:10.370Z,0.01
2023-05-17T12:15:10.892Z,0.01
2023-05-17T12:17:14.425Z,0.01
2023-05-17T12:19:12.183Z,0.8
2023-05-17T12:21:11.227Z,0.8
2023-05-17T12:23:11.180Z,0.8
2023-05-17T12:25:11.211Z,0.74
2023-05-17T12:27:11.150Z,0.74
2023-05-17T12:29:12.126Z,0.74
2023-05-17T12:31:11.491Z,0
2023-05-17T12:33:11.460Z,0
2023-05-17T12:35:11.939Z,0
2023-05-17T12:37:11.351Z,0
2023-05-17T12:39:10.631Z,0
2023-05-17T12:41:11.183Z,0
2023-05-17T12:43:10.828Z,0
2023-05-17T12:45:14.417Z,0
2023-05-17T12:47:10.999Z,0
2023-05-17T12:49:11.283Z,0.37
2023-05-17T12:51:12.155Z,0
2023-05-17T12:53:10.533Z,0
2023-05-17T12:55:11.289Z,0.37
2023-05-17T12:57:12.585Z,0.37
2023-05-17T12:59:11.172Z,0.37
2023-05-17T13:01:15.471Z,0.36
2023-05-17T13:03:11.207Z,0.36
2023-05-17T13:05:11.835Z,0.36
2023-05-17T13:07:10.876Z,0.35
2023-05-17T13:09:11.174Z,0.35
2023-05-17T13:11:10.912Z,0.35
2023-05-17T13:13:10.803Z,0.35
2023-05-17T13:15:11.131Z,0
2023-05-17T13:17:10.845Z,0
2023-05-17T13:19:11.988Z,0
2023-05-17T13:21:12.062Z,0
2023-05-17T13:23:10.951Z,0
2023-05-17T13:25:10.593Z,0.33
2023-05-17T13:27:11.109Z,0.34
2023-05-17T13:29:10.746Z,0.34
2023-05-17T13:31:11.854Z,0.34
2023-05-17T13:33:11.890Z,0.34
2023-05-17T13:35:11.009Z,0.34
2023-05-17T13:37:12.758Z,0
2023-05-17T13:39:10.775Z,0
2023-05-17T13:41:11.537Z,0
2023-05-17T13:43:11.000Z,0
2023-05-17T13:45:10.561Z,0.34
2023-05-17T13:47:10.975Z,0.34
2023-05-17T13:49:13.063Z,0
2023-05-17T13:51:10.742Z,0
2023-05-17T13:53:11.212Z,0
2023-05-17T13:55:13.916Z,0
2023-05-17T13:57:11.038Z,0
2023-05-17T13:59:10.750Z,0
2023-05-17T14:01:10.586Z,0.33
2023-05-17T14:03:11.327Z,0
2023-05-17T14:05:10.969Z,0
2023-05-17T14:07:13.375Z,0.33
2023-05-17T14:09:11.350Z,0.33
2023-05-17T14:11:11.238Z,0.33
2023-05-17T14:13:10.519Z,0.33
2023-05-17T14:15:11.066Z,0.33
2023-05-17T14:17:10.584Z,0.33
2023-05-17T14:19:16.500Z,0
2023-05-17T14:21:10.892Z,0
2023-05-17T14:23:11.182Z,0
2023-05-17T14:25:10.920Z,0.33
2023-05-17T14:27:11.180Z,0
2023-05-17T14:29:11.010Z,0
2023-05-17T14:31:11.226Z,0.33
2023-05-17T14:33:11.571Z,0
2023-05-17T14:35:10.998Z,0
2023-05-17T14:37:11.926Z,0
2023-05-17T14:39:10.681Z,0.33
2023-05-17T14:43:10.819Z,0.33
2023-05-17T14:45:11.128Z,0
2023-05-17T14:47:11.065Z,0
2023-05-17T14:49:10.789Z,0
2023-05-17T14:51:11.166Z,0
2023-05-17T14:53:10.573Z,0
2023-05-17T14:55:11.326Z,0
2023-05-17T14:57:10.621Z,0
2023-05-17T14:59:11.370Z,0
2023-05-17T15:01:19.273Z,0
2023-05-17T15:03:11.169Z,0
2023-05-17T15:05:12.355Z,0
2023-05-17T15:07:15.276Z,0.32
2023-05-17T15:09:11.192Z,0.32
2023-05-17T15:11:10.842Z,0.32
2023-05-17T15:13:11.649Z,0
2023-05-17T15:15:10.891Z,0.32
2023-05-17T15:17:11.886Z,0.32
2023-05-17T15:19:11.655Z,0
2023-05-17T15:21:11.928Z,0
2023-05-17T15:23:10.891Z,0
2023-05-17T15:25:13.640Z,0
2023-05-17T15:27:11.150Z,0
2023-05-17T15:29:10.564Z,0
2023-05-17T15:31:11.187Z,0
2023-05-17T15:33:11.213Z,0
2023-05-17T15:35:11.452Z,0
2023-05-17T15:37:11.117Z,0.32
2023-05-17T15:39:10.657Z,0
2023-05-17T15:41:11.400Z,0
2023-05-17T15:43:10.987Z,0
2023-05-17T15:45:10.382Z,0.32
2023-05-17T15:47:14.763Z,0.32
2023-05-17T15:49:10.855Z,0.32
2023-05-17T15:51:11.429Z,0.32
2023-05-17T15:53:14.008Z,0.32
2023-05-17T15:55:10.480Z,0
2023-05-17T15:57:11.000Z,0.32
2023-05-17T15:59:14.120Z,0.32
2023-05-17T16:01:14.353Z,0
2023-05-17T16:03:10.853Z,0
2023-05-17T16:05:15.413Z,0
2023-05-17T16:07:11.263Z,0
2023-05-17T16:09:10.499Z,0
2023-05-17T16:11:14.085Z,0
2023-05-17T16:13:11.017Z,0
2023-05-17T16:15:10.487Z,0
2023-05-17T16:17:11.062Z,0
2023-05-17T16:19:11.614Z,0.31
2023-05-17T16:21:11.684Z,0.31
2023-05-17T16:23:10.732Z,0.31
2023-05-17T16:25:11.141Z,0
2023-05-17T16:27:10.563Z,0
2023-05-17T16:29:11.414Z,0
2023-05-17T16:31:11.121Z,0.31
2023-05-17T16:33:11.217Z,0.3
2023-05-17T16:35:11.187Z,0.3
2023-05-17T16:37:10.728Z,0
2023-05-17T16:39:11.094Z,0.3
2023-05-17T16:41:11.011Z,0.3
2023-05-17T16:43:11.236Z,0
2023-05-17T16:45:10.849Z,0
2023-05-17T16:47:10.794Z,0
2023-05-17T16:49:11.596Z,0
2023-05-17T16:51:10.767Z,0
2023-05-17T16:53:10.812Z,0
2023-05-17T16:55:11.021Z,0.27
2023-05-17T16:57:11.157Z,0.28
2023-05-17T16:59:10.931Z,0.28
2023-05-17T17:01:14.737Z,0
2023-05-17T17:03:11.353Z,0
2023-05-17T17:05:11.365Z,0
2023-05-17T17:07:10.818Z,0.27
2023-05-17T17:09:11.148Z,0
2023-05-17T17:11:11.464Z,0
2023-05-17T17:13:25.317Z,0.26
2023-05-17T17:15:11.123Z,0.26
2023-05-17T17:17:11.271Z,0.26
2023-05-17T17:19:12.101Z,0.26
2023-05-17T17:21:10.766Z,0
2023-05-17T17:23:11.382Z,0
2023-05-17T17:25:11.544Z,0
2023-05-17T17:27:10.673Z,0
2023-05-17T17:29:11.070Z,0
2023-05-17T17:31:10.941Z,0
2023-05-17T17:33:12.488Z,0
2023-05-17T17:35:11.109Z,0
2023-05-17T17:37:10.522Z,0
2023-05-17T17:39:10.885Z,0
2023-05-17T17:41:10.739Z,0
2023-05-17T17:43:11.027Z,0
2023-05-17T17:45:10.968Z,0.25
2023-05-17T17:47:11.959Z,0.25
2023-05-17T17:49:11.188Z,0.24
2023-05-17T17:51:10.663Z,0
2023-05-17T17:53:11.215Z,0
2023-05-17T17:55:10.630Z,0
2023-05-17T17:57:11.219Z,0
2023-05-17T17:59:10.502Z,0
2023-05-17T18:01:14.326Z,0
2023-05-17T18:03:11.020Z,0
2023-05-17T18:05:11.061Z,0
2023-05-17T18:07:11.020Z,0
2023-05-17T18:09:10.564Z,0
2023-05-17T18:11:11.282Z,0
2023-05-17T18:13:14.507Z,0
2023-05-17T18:15:11.130Z,0.22
2023-05-17T18:17:11.452Z,0.22
2023-05-17T18:19:11.024Z,0
2023-05-17T18:21:11.406Z,0.22
2023-05-17T18:23:10.866Z,0.22
2023-05-17T18:25:10.316Z,0
2023-05-17T18:27:10.861Z,0
2023-05-17T18:29:27.999Z,0
2023-05-17T18:31:11.968Z,0
2023-05-17T18:33:11.832Z,0
2023-05-17T18:35:10.950Z,0
2023-05-17T18:37:10.372Z,0
2023-05-17T18:39:11.053Z,0.24
2023-05-17T18:41:10.769Z,0.24
2023-05-17T18:43:10.442Z,0
2023-05-17T18:45:13.790Z,0
2023-05-17T18:47:11.123Z,0
2023-05-17T18:49:11.421Z,0
2023-05-17T18:51:11.120Z,0.24
2023-05-17T18:53:10.533Z,0.24
2023-05-17T18:55:11.278Z,0
2023-05-17T18:57:10.800Z,0
2023-05-17T18:59:11.209Z,0
2023-05-17T19:01:14.446Z,0
2023-05-17T19:03:10.911Z,0
2023-05-17T19:05:11.624Z,0
2023-05-17T19:07:11.094Z,0
2023-05-17T19:09:10.577Z,0
2023-05-17T19:11:11.504Z,0
2023-05-17T19:13:11.081Z,0.24
2023-05-17T19:15:10.652Z,0
2023-05-17T19:17:10.633Z,0
2023-05-17T19:19:11.513Z,0
2023-05-17T19:21:10.830Z,0.25
2023-05-17T19:23:11.241Z,0.25
2023-05-17T19:25:10.662Z,0
2023-05-17T19:27:11.055Z,0.25
2023-05-17T19:29:10.812Z,0.25
2023-05-17T19:31:10.980Z,0
2023-05-17T19:33:11.360Z,0
2023-05-17T19:35:10.817Z,0
2023-05-17T19:37:10.486Z,0
2023-05-17T19:39:14.267Z,0.25
2023-05-17T19:41:10.871Z,0.25
2023-05-17T19:43:10.551Z,0
2023-05-17T19:45:11.030Z,0.25
2023-05-17T19:47:11.191Z,0.25
2023-05-17T19:49:10.681Z,0.25
2023-05-17T19:51:11.205Z,0.25
2023-05-17T19:53:10.438Z,0.25
2023-05-17T19:55:10.999Z,0
2023-05-17T19:57:10.757Z,0
2023-05-17T19:59:11.248Z,0
2023-05-17T20:01:16.151Z,0
2023-05-17T20:03:11.232Z,0
2023-05-17T20:05:11.315Z,0
2023-05-17T20:07:10.473Z,0.25
2023-05-17T20:09:10.902Z,0
2023-05-17T20:11:10.698Z,0
2023-05-17T20:13:11.037Z,0.25
2023-05-17T20:15:10.474Z,0.25
2023-05-17T20:17:11.719Z,0.25
2023-05-17T20:19:11.160Z,0.25
2023-05-17T20:21:11.284Z,0
2023-05-17T20:23:10.646Z,0
2023-05-17T20:25:11.132Z,0
2023-05-17T20:27:11.093Z,0.26
2023-05-17T20:29:11.172Z,0.26
2023-05-17T20:31:10.923Z,0
2023-05-17T20:33:10.922Z,0
2023-05-17T20:35:11.047Z,0
2023-05-17T20:37:10.548Z,0
2023-05-17T20:39:10.780Z,0
2023-05-17T20:41:10.819Z,0
2023-05-17T20:43:11.200Z,0
2023-05-17T20:45:12.093Z,0
2023-05-17T20:47:11.055Z,0
2023-05-17T20:49:10.875Z,0
2023-05-17T20:51:11.330Z,0
2023-05-17T20:53:25.702Z,0
2023-05-17T20:55:11.267Z,0.26
2023-05-17T20:57:10.637Z,0
2023-05-17T20:59:11.095Z,0
2023-05-17T21:01:17.446Z,0
2023-05-17T21:03:11.481Z,0
2023-05-17T21:05:11.237Z,0
2023-05-17T21:07:10.849Z,0
2023-05-17T21:09:11.248Z,0.26
2023-05-17T21:11:10.927Z,0.26
2023-05-17T21:13:10.636Z,0
2023-05-17T21:15:28.960Z,0
2023-05-17T21:17:10.814Z,0
2023-05-17T21:19:11.519Z,0.27
2023-05-17T21:21:11.021Z,0
2023-05-17T21:23:11.127Z,0
2023-05-17T21:25:10.838Z,0
2023-05-17T21:27:15.218Z,0
2023-05-17T21:29:10.637Z,0
2023-05-17T21:31:11.687Z,0
2023-05-17T21:33:11.310Z,0
2023-05-17T21:35:10.336Z,0
2023-05-17T21:37:10.897Z,0
2023-05-17T21:39:10.425Z,0.27
2023-05-17T21:41:11.338Z,0.27
2023-05-17T21:43:10.803Z,0.27
2023-05-17T21:45:11.053Z,0
2023-05-17T21:47:11.304Z,0
2023-05-17T21:49:10.761Z,0
2023-05-17T21:51:11.277Z,0.28
2023-05-17T21:53:10.688Z,0.28
2023-05-17T21:55:11.028Z,0.28
2023-05-17T21:57:12.297Z,0
2023-05-17T21:59:11.372Z,0
2023-05-17T22:01:12.286Z,0.28
2023-05-17T22:03:11.306Z,0
2023-05-17T22:05:13.296Z,0
2023-05-17T22:07:10.609Z,0
2023-05-17T22:09:11.149Z,0
2023-05-17T22:11:11.008Z,0
2023-05-17T22:13:11.970Z,0.28
2023-05-17T22:15:11.091Z,0.28
2023-05-17T22:17:11.100Z,0.28
2023-05-17T22:19:11.517Z,0
2023-05-17T22:21:11.091Z,0
2023-05-17T22:23:11.166Z,0
2023-05-17T22:25:10.866Z,0.28
2023-05-17T22:27:10.297Z,0
2023-05-17T22:29:11.136Z,0
2023-05-17T22:31:10.871Z,0
2023-05-17T22:33:11.535Z,0.28
2023-05-17T22:35:10.918Z,0.28
2023-05-17T22:37:10.968Z,0
2023-05-17T22:39:11.175Z,0.28
2023-05-17T22:41:10.980Z,0.28
2023-05-17T22:43:11.180Z,0
2023-05-17T22:45:10.920Z,0
2023-05-17T22:47:10.998Z,0
2023-05-17T22:49:11.545Z,0
2023-05-17T22:51:10.950Z,0
2023-05-17T22:53:10.566Z,0
2023-05-17T22:55:11.446Z,0
2023-05-17T22:57:10.829Z,0
2023-05-17T22:59:11.411Z,0
2023-05-17T23:01:14.817Z,0
2023-05-17T23:03:11.027Z,0.28
2023-05-17T23:05:11.813Z,0.28
2023-05-17T23:07:11.821Z,0
2023-05-17T23:09:11.336Z,0.28
2023-05-17T23:11:10.944Z,0.28
2023-05-17T23:13:12.384Z,0
2023-05-17T23:15:11.323Z,0
2023-05-17T23:17:11.145Z,0
2023-05-17T23:19:12.165Z,0
2023-05-17T23:21:12.754Z,0
2023-05-17T23:23:10.852Z,0
2023-05-17T23:25:11.475Z,0.28
2023-05-17T23:27:10.854Z,0
2023-05-17T23:29:11.340Z,0
2023-05-17T23:31:11.060Z,0
2023-05-17T23:33:10.908Z,0
2023-05-17T23:35:11.186Z,0
2023-05-17T23:37:10.748Z,0
2023-05-17T23:39:10.383Z,0
2023-05-17T23:41:11.279Z,0
2023-05-17T23:43:10.602Z,0
2023-05-17T23:45:11.127Z,0.27
2023-05-17T23:47:11.317Z,0.27
2023-05-17T23:49:10.611Z,0.27
2023-05-17T23:51:11.169Z,0
2023-05-17T23:53:10.641Z,0
2023-05-17T23:55:11.196Z,0.27
2023-05-17T23:57:10.709Z,0
2023-05-17T23:59:11.095Z,0
